80AR weather

Price Field
Joiner, Arkansas, United States

Public forecast

Using degrees Fahrenheit for public forecast. Weather courtesy of forecast.io.

METAR (pilot weather report)

Closest report is Millington-Memphis Airport, 20.8 nm (38.6 km) ESE. Retrieved 2019/05/19 20:50 UTC (1 hour ago):

KNQA 192050Z 24014G21KT 10SM SCT031 BKN047 28/21 A2986

TAF (pilot weather forecast)

Closest forecast is Jonesboro Municipal Airport, 27.5 nm (50.9 km) NW. Retrieved 2019/05/19 18:22 UTC (3 hours ago):

TAF KJBR 191720Z 1918/2018 23015G22KT P6SM FEW025 BKN040 FM192200 26010KT P6SM FEW050 SCT250 FM200200 32004KT P6SM FEW250 FM201500 06008KT P6SM FEW250